PWSweather.com
Personal Weather Stations
Station Observations
W0CHP
Plainview, MN 55694

Plainview, MN 55694

Lat: 44.16640472, Lon: -92.16882324

Elevation: 1155

Station Type: HW: WX Station Bridge, Raspberry Pi and RF (APRS) via 144.390 MHz. SW: Xastir, APRX, WeeWX and Linux.

http://wx.w0chp.net

Latest ConditionsUpdated 3:30:00 AM CDT Monday, Aug 26, 2019
Currently Today's Max Today's Min Today's Average
Temperature 60.2°F15.7°C 61.1°F16.2°C 60.2°F15.7°C 60.7°F15.9°C
Dew Point 59.6°F15.3°C 60.5°F15.8°C 59.0°F15.0°C 59.9°F15.5°C
Winds 1.4 mph WSW2.3 kmh WSW 2.2 mph -3.5 kmh - - 1.3 mph 2.1 kmh
Wind Gusts 2.0 mph3.2 kmh 4.0 mph6.4 kmh - -
Humidity 98% 98% 93% 97%
Pressure 29.81 in1009.5 mb 29.86 in1011.2 mb 29.80 in1009.1 mb -
Hour Temp Dew Point Humidity Winds Wind Gusts Pressure Precip Precip Rate Daily Precip Total
03:30 AM 60.2°F15.7°C 59.6°F15.3°C 98% 1.4 mph WSW2.3 kmh WSW 2.0 mph3.2 kmh 29.81 in1009.5 mb 0.00 in0.0 mm 0.00 in0.0 mm 0.00 in0.0 mm
03:24 AM 60.2°F15.7°C 59.6°F15.3°C 98% 1.0 mph SSE1.6 kmh SSE 1.0 mph1.6 kmh 29.81 in1009.5 mb 0.00 in0.0 mm 0.00 in0.0 mm 0.00 in0.0 mm
03:18 AM 60.2°F15.7°C 59.6°F15.3°C 98% 2.0 mph SSE3.2 kmh SSE 4.0 mph6.4 kmh 29.81 in1009.5 mb 0.00 in0.0 mm 0.00 in0.0 mm 0.00 in0.0 mm
03:12 AM 60.2°F15.7°C 59.6°F15.3°C 98% 1.6 mph SW2.6 kmh SW 3.0 mph4.8 kmh 29.80 in1009.1 mb 0.00 in0.0 mm 0.00 in0.0 mm 0.00 in0.0 mm
03:06 AM 60.3°F15.7°C 59.7°F15.4°C 98% 1.2 mph SSE1.9 kmh SSE 2.0 mph3.2 kmh 29.80 in1009.1 mb 0.00 in0.0 mm 0.00 in0.0 mm 0.00 in0.0 mm
03:00 AM 60.3°F15.7°C 59.7°F15.4°C 98% 1.3 mph ESE2.1 kmh ESE 2.0 mph3.2 kmh 29.81 in1009.5 mb 0.00 in0.0 mm 0.00 in0.0 mm 0.00 in0.0 mm
02:54 AM 60.3°F15.7°C 59.7°F15.4°C 98% 1.0 mph NNE1.6 kmh NNE 1.0 mph1.6 kmh 29.81 in1009.5 mb 0.00 in0.0 mm 0.00 in0.0 mm 0.00 in0.0 mm
02:48 AM 60.5°F15.8°C 59.9°F15.5°C 98% 1.2 mph SE1.9 kmh SE 2.0 mph3.2 kmh 29.81 in1009.5 mb 0.00 in0.0 mm 0.00 in0.0 mm 0.00 in0.0 mm
02:42 AM 60.5°F15.8°C 59.9°F15.5°C 98% 1.8 mph NE2.9 kmh NE 2.0 mph3.2 kmh 29.81 in1009.5 mb 0.00 in0.0 mm 0.00 in0.0 mm 0.00 in0.0 mm
02:36 AM 60.5°F15.8°C 59.9°F15.5°C 98% 1.4 mph NE2.3 kmh NE 2.0 mph3.2 kmh 29.81 in1009.5 mb 0.00 in0.0 mm 0.00 in0.0 mm 0.00 in0.0 mm
02:30 AM 60.7°F15.9°C 60.1°F15.6°C 98% 1.3 mph S2.1 kmh S 2.0 mph3.2 kmh 29.81 in1009.5 mb 0.00 in0.0 mm 0.00 in0.0 mm 0.00 in0.0 mm
02:24 AM 60.7°F15.9°C 60.1°F15.6°C 98% 1.7 mph S2.7 kmh S 3.0 mph4.8 kmh 29.82 in1009.8 mb 0.00 in0.0 mm 0.00 in0.0 mm 0.00 in0.0 mm
02:18 AM 61.0°F16.1°C 60.4°F15.8°C 98% 2.2 mph E3.5 kmh E 3.0 mph4.8 kmh 29.82 in1009.8 mb 0.00 in0.0 mm 0.00 in0.0 mm 0.00 in0.0 mm
02:12 AM 61.1°F16.2°C 60.5°F15.8°C 98% 1.5 mph ESE2.4 kmh ESE 2.0 mph3.2 kmh 29.82 in1009.8 mb 0.00 in0.0 mm 0.00 in0.0 mm 0.00 in0.0 mm
02:06 AM 61.1°F16.2°C 60.5°F15.8°C 98% 1.0 mph E1.6 kmh E 1.0 mph1.6 kmh 29.83 in1010.2 mb 0.00 in0.0 mm 0.00 in0.0 mm 0.00 in0.0 mm
02:00 AM 61.1°F16.2°C 60.5°F15.8°C 98% 1.0 mph E1.6 kmh E 1.0 mph1.6 kmh 29.83 in1010.2 mb 0.00 in0.0 mm 0.00 in0.0 mm 0.00 in0.0 mm
01:54 AM 61.0°F16.1°C 60.4°F15.8°C 98% 1.5 mph SE2.4 kmh SE 3.0 mph4.8 kmh 29.84 in1010.5 mb 0.00 in0.0 mm 0.00 in0.0 mm 0.00 in0.0 mm
01:48 AM 61.0°F16.1°C 60.4°F15.8°C 98% 1.0 mph ESE1.6 kmh ESE 1.0 mph1.6 kmh 29.84 in1010.5 mb 0.00 in0.0 mm 0.00 in0.0 mm 0.00 in0.0 mm
01:42 AM 61.0°F16.1°C 60.4°F15.8°C 98% 1.2 mph E1.9 kmh E 2.0 mph3.2 kmh 29.84 in1010.5 mb 0.00 in0.0 mm 0.00 in0.0 mm 0.00 in0.0 mm
01:36 AM 61.0°F16.1°C 60.4°F15.8°C 98% 1.6 mph SE2.6 kmh SE 2.0 mph3.2 kmh 29.84 in1010.5 mb 0.00 in0.0 mm 0.00 in0.0 mm 0.00 in0.0 mm
01:30 AM 61.0°F16.1°C 60.4°F15.8°C 98% 1.3 mph SSW2.1 kmh SSW 2.0 mph3.2 kmh 29.85 in1010.8 mb 0.00 in0.0 mm 0.00 in0.0 mm 0.00 in0.0 mm
01:24 AM 61.0°F16.1°C 60.4°F15.8°C 98% 1.0 mph SW1.6 kmh SW 1.0 mph1.6 kmh 29.85 in1010.8 mb 0.00 in0.0 mm 0.00 in0.0 mm 0.00 in0.0 mm
01:18 AM 60.7°F15.9°C 60.1°F15.6°C 98% 1.2 mph WSW1.9 kmh WSW 2.0 mph3.2 kmh 29.85 in1010.8 mb 0.00 in0.0 mm 0.00 in0.0 mm 0.00 in0.0 mm
01:12 AM 60.7°F15.9°C 60.1°F15.6°C 98% 1.7 mph S2.7 kmh S 3.0 mph4.8 kmh 29.85 in1010.8 mb 0.00 in0.0 mm 0.00 in0.0 mm 0.00 in0.0 mm
01:06 AM 60.7°F15.9°C 60.0°F15.6°C 98% 1.0 mph SW1.6 kmh SW 1.0 mph1.6 kmh 29.85 in1010.8 mb 0.00 in0.0 mm 0.00 in0.0 mm 0.00 in0.0 mm
01:00 AM 60.7°F15.9°C 59.6°F15.3°C 96% 1.5 mph NE2.4 kmh NE 2.0 mph3.2 kmh 29.85 in1010.8 mb 0.00 in0.0 mm 0.00 in0.0 mm 0.00 in0.0 mm
12:54 AM 60.7°F15.9°C 59.6°F15.3°C 96% 1.5 mph SSE2.4 kmh SSE 2.0 mph3.2 kmh 29.86 in1011.2 mb 0.00 in0.0 mm 0.00 in0.0 mm 0.00 in0.0 mm
12:48 AM 60.7°F15.9°C 59.6°F15.3°C 96% 1.3 mph SSE2.1 kmh SSE 2.0 mph3.2 kmh 29.85 in1010.8 mb 0.00 in0.0 mm 0.00 in0.0 mm 0.00 in0.0 mm
12:42 AM 60.7°F15.9°C 59.6°F15.3°C 96% 1.0 mph SSW1.6 kmh SSW 1.0 mph1.6 kmh 29.85 in1010.8 mb 0.00 in0.0 mm 0.00 in0.0 mm 0.00 in0.0 mm
12:36 AM 60.7°F15.9°C 59.6°F15.3°C 96% 1.0 mph SSW1.6 kmh SSW 1.0 mph1.6 kmh 29.85 in1010.8 mb 0.00 in0.0 mm 0.00 in0.0 mm 0.00 in0.0 mm
12:30 AM 60.7°F15.9°C 59.6°F15.3°C 96% 1.5 mph ENE2.4 kmh ENE 2.0 mph3.2 kmh 29.85 in1010.8 mb 0.00 in0.0 mm 0.00 in0.0 mm 0.00 in0.0 mm
12:24 AM 60.8°F16.0°C 59.7°F15.4°C 96% 1.5 mph NE2.4 kmh NE 2.0 mph3.2 kmh 29.85 in1010.8 mb 0.00 in0.0 mm 0.00 in0.0 mm 0.00 in0.0 mm
12:18 AM 61.0°F16.1°C 59.6°F15.3°C 95% 1.0 mph ESE1.6 kmh ESE 1.0 mph1.6 kmh 29.85 in1010.8 mb 0.00 in0.0 mm 0.00 in0.0 mm 0.00 in0.0 mm
12:12 AM 61.0°F16.1°C 59.4°F15.2°C 94% 1.3 mph NE2.1 kmh NE 2.0 mph3.2 kmh 29.85 in1010.8 mb 0.00 in0.0 mm 0.00 in0.0 mm 0.00 in0.0 mm
12:06 AM 61.1°F16.2°C 59.0°F15.0°C 93% 1.0 mph ESE1.6 kmh ESE 1.0 mph1.6 kmh 29.85 in1010.8 mb 0.00 in0.0 mm 0.00 in0.0 mm 0.00 in0.0 mm
12:00 AM 61.1°F16.2°C 59.1°F15.1°C 93% 1.0 mph N1.6 kmh N 1.0 mph1.6 kmh 29.86 in1011.2 mb 0.00 in0.0 mm 0.00 in0.0 mm 0.00 in0.0 mm